sensor_id;sensor_type;location;lat;lon;timestamp;temperature;humidity
913;DHT22;443;51.448;7.028;2022-08-07T00:01:12;19.40;76.30
913;DHT22;443;51.448;7.028;2022-08-07T00:03:39;19.40;76.80
913;DHT22;443;51.448;7.028;2022-08-07T00:06:07;19.30;76.60
913;DHT22;443;51.448;7.028;2022-08-07T00:08:35;19.40;79.50
913;DHT22;443;51.448;7.028;2022-08-07T00:11:03;19.50;77.70
913;DHT22;443;51.448;7.028;2022-08-07T00:13:30;19.40;76.50
913;DHT22;443;51.448;7.028;2022-08-07T00:15:58;19.40;76.00
913;DHT22;443;51.448;7.028;2022-08-07T00:18:26;19.30;77.10
913;DHT22;443;51.448;7.028;2022-08-07T00:20:55;19.30;75.90
913;DHT22;443;51.448;7.028;2022-08-07T00:23:22;19.30;77.00
913;DHT22;443;51.448;7.028;2022-08-07T00:25:51;19.30;76.00
913;DHT22;443;51.448;7.028;2022-08-07T00:28:18;19.20;76.50
913;DHT22;443;51.448;7.028;2022-08-07T00:30:45;19.20;77.20
913;DHT22;443;51.448;7.028;2022-08-07T00:33:12;19.20;78.40
913;DHT22;443;51.448;7.028;2022-08-07T00:35:38;19.30;74.90
913;DHT22;443;51.448;7.028;2022-08-07T00:38:05;19.20;77.50
913;DHT22;443;51.448;7.028;2022-08-07T00:40:33;19.10;77.60
913;DHT22;443;51.448;7.028;2022-08-07T00:43:02;19.10;77.90
913;DHT22;443;51.448;7.028;2022-08-07T00:45:29;19.10;78.50
913;DHT22;443;51.448;7.028;2022-08-07T00:47:56;19.10;78.70
913;DHT22;443;51.448;7.028;2022-08-07T00:50:22;19.20;76.60
913;DHT22;443;51.448;7.028;2022-08-07T00:52:49;19.10;76.20
913;DHT22;443;51.448;7.028;2022-08-07T00:55:17;19.00;78.30
913;DHT22;443;51.448;7.028;2022-08-07T00:57:43;19.10;78.30
913;DHT22;443;51.448;7.028;2022-08-07T01:00:13;19.00;77.80
913;DHT22;443;51.448;7.028;2022-08-07T01:02:40;19.10;78.30
913;DHT22;443;51.448;7.028;2022-08-07T01:05:10;19.10;77.90
913;DHT22;443;51.448;7.028;2022-08-07T01:07:38;19.10;78.10
913;DHT22;443;51.448;7.028;2022-08-07T01:10:06;19.00;78.10
913;DHT22;443;51.448;7.028;2022-08-07T01:12:34;18.90;78.40
913;DHT22;443;51.448;7.028;2022-08-07T01:15:01;19.00;79.50
913;DHT22;443;51.448;7.028;2022-08-07T01:17:30;18.90;79.40
913;DHT22;443;51.448;7.028;2022-08-07T01:20:02;18.90;78.70
913;DHT22;443;51.448;7.028;2022-08-07T01:22:31;18.90;78.60
913;DHT22;443;51.448;7.028;2022-08-07T01:24:59;18.90;78.70
913;DHT22;443;51.448;7.028;2022-08-07T01:27:26;18.90;79.10
913;DHT22;443;51.448;7.028;2022-08-07T01:29:53;18.80;79.20
913;DHT22;443;51.448;7.028;2022-08-07T01:32:20;18.90;80.30
913;DHT22;443;51.448;7.028;2022-08-07T01:34:48;18.90;79.40
913;DHT22;443;51.448;7.028;2022-08-07T01:37:15;19.00;79.80
913;DHT22;443;51.448;7.028;2022-08-07T01:39:44;19.00;79.70
913;DHT22;443;51.448;7.028;2022-08-07T01:42:12;19.00;79.20
913;DHT22;443;51.448;7.028;2022-08-07T01:44:40;18.80;79.40
913;DHT22;443;51.448;7.028;2022-08-07T01:47:07;18.80;80.10
913;DHT22;443;51.448;7.028;2022-08-07T01:49:35;18.80;79.90
913;DHT22;443;51.448;7.028;2022-08-07T01:52:02;18.80;80.60
913;DHT22;443;51.448;7.028;2022-08-07T01:54:35;18.80;80.40
913;DHT22;443;51.448;7.028;2022-08-07T01:57:05;18.80;80.10
913;DHT22;443;51.448;7.028;2022-08-07T01:59:38;18.80;80.80
913;DHT22;443;51.448;7.028;2022-08-07T02:02:09;18.70;80.30
913;DHT22;443;51.448;7.028;2022-08-07T02:04:40;18.80;80.50
913;DHT22;443;51.448;7.028;2022-08-07T02:07:10;18.80;80.70
913;DHT22;443;51.448;7.028;2022-08-07T02:09:40;18.80;80.80
913;DHT22;443;51.448;7.028;2022-08-07T02:12:10;18.80;81.60
913;DHT22;443;51.448;7.028;2022-08-07T02:14:45;18.70;80.70
913;DHT22;443;51.448;7.028;2022-08-07T02:17:14;18.70;80.50
913;DHT22;443;51.448;7.028;2022-08-07T02:19:43;18.70;80.70
913;DHT22;443;51.448;7.028;2022-08-07T02:22:11;18.80;81.40
913;DHT22;443;51.448;7.028;2022-08-07T02:24:39;18.80;81.50
913;DHT22;443;51.448;7.028;2022-08-07T02:27:10;18.70;81.90
913;DHT22;443;51.448;7.028;2022-08-07T02:29:38;18.90;81.10
913;DHT22;443;51.448;7.028;2022-08-07T02:32:07;18.90;80.80
913;DHT22;443;51.448;7.028;2022-08-07T02:34:36;18.90;80.70
913;DHT22;443;51.448;7.028;2022-08-07T02:37:05;18.80;80.80
913;DHT22;443;51.448;7.028;2022-08-07T02:39:34;18.80;80.60
913;DHT22;443;51.448;7.028;2022-08-07T02:42:03;18.70;80.90
913;DHT22;443;51.448;7.028;2022-08-07T02:44:32;18.70;81.10
913;DHT22;443;51.448;7.028;2022-08-07T02:47:00;18.80;81.90
913;DHT22;443;51.448;7.028;2022-08-07T02:49:28;18.90;83.40
913;DHT22;443;51.448;7.028;2022-08-07T02:51:56;18.70;80.60
913;DHT22;443;51.448;7.028;2022-08-07T02:54:26;18.60;80.80
913;DHT22;443;51.448;7.028;2022-08-07T02:56:55;18.60;81.00
913;DHT22;443;51.448;7.028;2022-08-07T02:59:26;18.50;81.90
913;DHT22;443;51.448;7.028;2022-08-07T03:01:55;18.50;81.30
913;DHT22;443;51.448;7.028;2022-08-07T03:04:23;18.60;82.00
913;DHT22;443;51.448;7.028;2022-08-07T03:06:51;18.50;81.30
913;DHT22;443;51.448;7.028;2022-08-07T03:09:19;18.50;81.10
913;DHT22;443;51.448;7.028;2022-08-07T03:11:46;18.50;81.70
913;DHT22;443;51.448;7.028;2022-08-07T03:14:14;18.50;82.00
913;DHT22;443;51.448;7.028;2022-08-07T03:16:42;18.60;83.30
913;DHT22;443;51.448;7.028;2022-08-07T03:19:10;18.50;81.60
913;DHT22;443;51.448;7.028;2022-08-07T03:21:37;18.50;81.70
913;DHT22;443;51.448;7.028;2022-08-07T03:24:05;18.40;82.30
913;DHT22;443;51.448;7.028;2022-08-07T03:26:32;18.50;82.60
913;DHT22;443;51.448;7.028;2022-08-07T03:29:02;18.40;82.40
913;DHT22;443;51.448;7.028;2022-08-07T03:31:30;18.40;82.10
913;DHT22;443;51.448;7.028;2022-08-07T03:33:59;18.40;82.00
913;DHT22;443;51.448;7.028;2022-08-07T03:36:29;18.30;81.60
913;DHT22;443;51.448;7.028;2022-08-07T03:38:58;18.30;82.30
913;DHT22;443;51.448;7.028;2022-08-07T03:41:28;18.30;81.50
913;DHT22;443;51.448;7.028;2022-08-07T03:43:57;18.30;81.20
913;DHT22;443;51.448;7.028;2022-08-07T03:46:24;18.30;82.10
913;DHT22;443;51.448;7.028;2022-08-07T03:48:52;18.30;82.00
913;DHT22;443;51.448;7.028;2022-08-07T03:51:20;18.30;81.30
913;DHT22;443;51.448;7.028;2022-08-07T03:53:48;18.30;82.30
913;DHT22;443;51.448;7.028;2022-08-07T03:56:18;18.30;81.70
913;DHT22;443;51.448;7.028;2022-08-07T03:58:45;18.30;81.60
913;DHT22;443;51.448;7.028;2022-08-07T04:01:13;18.30;81.90
913;DHT22;443;51.448;7.028;2022-08-07T04:03:42;18.40;82.40
913;DHT22;443;51.448;7.028;2022-08-07T04:06:09;18.50;82.70
913;DHT22;443;51.448;7.028;2022-08-07T04:08:36;18.70;86.20
913;DHT22;443;51.448;7.028;2022-08-07T04:11:07;18.90;84.10
913;DHT22;443;51.448;7.028;2022-08-07T04:13:34;19.00;83.90
913;DHT22;443;51.448;7.028;2022-08-07T04:16:01;19.10;87.40
913;DHT22;443;51.448;7.028;2022-08-07T04:18:28;19.40;86.60
913;DHT22;443;51.448;7.028;2022-08-07T04:20:55;19.60;86.10
913;DHT22;443;51.448;7.028;2022-08-07T04:23:23;19.90;86.50
913;DHT22;443;51.448;7.028;2022-08-07T04:25:52;19.80;83.70
913;DHT22;443;51.448;7.028;2022-08-07T04:28:20;19.80;85.00
913;DHT22;443;51.448;7.028;2022-08-07T04:30:48;19.90;84.90
913;DHT22;443;51.448;7.028;2022-08-07T04:33:15;19.80;83.80
913;DHT22;443;51.448;7.028;2022-08-07T04:35:43;19.90;85.20
913;DHT22;443;51.448;7.028;2022-08-07T04:38:11;20.00;84.70
913;DHT22;443;51.448;7.028;2022-08-07T04:40:41;19.90;83.20
913;DHT22;443;51.448;7.028;2022-08-07T04:43:09;19.70;83.00
913;DHT22;443;51.448;7.028;2022-08-07T04:45:47;19.80;83.80
913;DHT22;443;51.448;7.028;2022-08-07T04:48:23;19.70;85.00
913;DHT22;443;51.448;7.028;2022-08-07T04:50:58;19.70;85.50
913;DHT22;443;51.448;7.028;2022-08-07T04:53:37;19.80;84.10
913;DHT22;443;51.448;7.028;2022-08-07T04:56:13;20.00;85.80
913;DHT22;443;51.448;7.028;2022-08-07T04:58:46;20.00;84.70
913;DHT22;443;51.448;7.028;2022-08-07T05:01:23;20.00;83.90
913;DHT22;443;51.448;7.028;2022-08-07T05:04:01;20.10;85.40
913;DHT22;443;51.448;7.028;2022-08-07T05:06:35;20.20;85.40
913;DHT22;443;51.448;7.028;2022-08-07T05:09:08;20.10;85.20
913;DHT22;443;51.448;7.028;2022-08-07T05:11:40;20.00;84.70
913;DHT22;443;51.448;7.028;2022-08-07T05:14:10;19.80;83.40
913;DHT22;443;51.448;7.028;2022-08-07T05:16:42;19.40;80.70
913;DHT22;443;51.448;7.028;2022-08-07T05:19:14;19.30;80.70
913;DHT22;443;51.448;7.028;2022-08-07T05:21:46;19.20;81.80
913;DHT22;443;51.448;7.028;2022-08-07T05:24:15;19.00;79.70
913;DHT22;443;51.448;7.028;2022-08-07T05:26:43;18.80;80.90
913;DHT22;443;51.448;7.028;2022-08-07T05:29:13;18.60;80.10
913;DHT22;443;51.448;7.028;2022-08-07T05:31:43;18.50;81.10
913;DHT22;443;51.448;7.028;2022-08-07T05:34:15;18.50;81.60
913;DHT22;443;51.448;7.028;2022-08-07T05:36:46;18.50;82.60
913;DHT22;443;51.448;7.028;2022-08-07T05:39:14;18.60;81.50
913;DHT22;443;51.448;7.028;2022-08-07T05:41:42;18.70;82.90
913;DHT22;443;51.448;7.028;2022-08-07T05:44:12;18.70;84.30
913;DHT22;443;51.448;7.028;2022-08-07T05:46:42;19.00;85.60
913;DHT22;443;51.448;7.028;2022-08-07T05:49:10;18.90;83.80
913;DHT22;443;51.448;7.028;2022-08-07T05:51:37;18.80;82.90
913;DHT22;443;51.448;7.028;2022-08-07T05:54:04;18.80;81.30
913;DHT22;443;51.448;7.028;2022-08-07T05:56:33;19.00;83.00
913;DHT22;443;51.448;7.028;2022-08-07T05:59:02;19.00;81.90
913;DHT22;443;51.448;7.028;2022-08-07T06:01:32;18.90;81.80
913;DHT22;443;51.448;7.028;2022-08-07T06:04:03;19.10;85.90
913;DHT22;443;51.448;7.028;2022-08-07T06:06:31;19.50;85.40
913;DHT22;443;51.448;7.028;2022-08-07T06:09:00;19.60;86.00
913;DHT22;443;51.448;7.028;2022-08-07T06:11:27;19.40;83.20
913;DHT22;443;51.448;7.028;2022-08-07T06:13:55;19.50;85.70
913;DHT22;443;51.448;7.028;2022-08-07T06:16:22;19.70;83.80
913;DHT22;443;51.448;7.028;2022-08-07T06:18:53;19.90;85.90
913;DHT22;443;51.448;7.028;2022-08-07T06:21:22;20.10;86.40
913;DHT22;443;51.448;7.028;2022-08-07T06:23:49;20.00;84.50
913;DHT22;443;51.448;7.028;2022-08-07T06:26:16;19.80;81.40
913;DHT22;443;51.448;7.028;2022-08-07T06:28:47;19.80;83.60
913;DHT22;443;51.448;7.028;2022-08-07T06:31:14;20.10;85.70
913;DHT22;443;51.448;7.028;2022-08-07T06:33:41;20.00;84.70
913;DHT22;443;51.448;7.028;2022-08-07T06:36:09;20.30;85.00
913;DHT22;443;51.448;7.028;2022-08-07T06:38:37;20.10;83.00
913;DHT22;443;51.448;7.028;2022-08-07T06:41:08;20.20;84.80
913;DHT22;443;51.448;7.028;2022-08-07T06:43:36;20.20;83.90
913;DHT22;443;51.448;7.028;2022-08-07T06:46:04;20.40;84.50
913;DHT22;443;51.448;7.028;2022-08-07T06:48:31;20.30;83.20
913;DHT22;443;51.448;7.028;2022-08-07T06:50:59;20.40;84.30
913;DHT22;443;51.448;7.028;2022-08-07T06:53:29;20.40;84.00
913;DHT22;443;51.448;7.028;2022-08-07T06:55:59;20.50;84.00
913;DHT22;443;51.448;7.028;2022-08-07T06:58:27;20.50;83.90
913;DHT22;443;51.448;7.028;2022-08-07T07:00:55;20.50;83.80
913;DHT22;443;51.448;7.028;2022-08-07T07:03:23;20.50;83.80
913;DHT22;443;51.448;7.028;2022-08-07T07:05:50;20.50;83.70
913;DHT22;443;51.448;7.028;2022-08-07T07:08:17;20.50;82.30
913;DHT22;443;51.448;7.028;2022-08-07T07:10:44;20.50;83.70
913;DHT22;443;51.448;7.028;2022-08-07T07:13:16;20.50;83.20
913;DHT22;443;51.448;7.028;2022-08-07T07:15:47;20.50;83.70
913;DHT22;443;51.448;7.028;2022-08-07T07:18:20;20.60;83.60
913;DHT22;443;51.448;7.028;2022-08-07T07:20:51;20.60;83.60
913;DHT22;443;51.448;7.028;2022-08-07T07:23:19;20.60;83.30
913;DHT22;443;51.448;7.028;2022-08-07T07:25:49;20.60;82.30
913;DHT22;443;51.448;7.028;2022-08-07T07:28:21;20.60;83.50
913;DHT22;443;51.448;7.028;2022-08-07T07:30:52;20.60;83.20
913;DHT22;443;51.448;7.028;2022-08-07T07:33:21;20.70;83.20
913;DHT22;443;51.448;7.028;2022-08-07T07:35:50;20.70;83.20
913;DHT22;443;51.448;7.028;2022-08-07T07:38:18;20.70;83.00
913;DHT22;443;51.448;7.028;2022-08-07T07:40:47;20.70;83.00
913;DHT22;443;51.448;7.028;2022-08-07T07:43:15;20.70;82.90
913;DHT22;443;51.448;7.028;2022-08-07T07:45:46;20.80;83.00
913;DHT22;443;51.448;7.028;2022-08-07T07:48:18;20.70;82.70
913;DHT22;443;51.448;7.028;2022-08-07T07:50:46;20.80;82.90
913;DHT22;443;51.448;7.028;2022-08-07T07:53:15;20.80;82.80
913;DHT22;443;51.448;7.028;2022-08-07T07:55:43;20.80;82.70
913;DHT22;443;51.448;7.028;2022-08-07T07:58:10;20.80;82.70
913;DHT22;443;51.448;7.028;2022-08-07T08:00:39;20.80;82.70
913;DHT22;443;51.448;7.028;2022-08-07T08:03:10;20.70;76.80
913;DHT22;443;51.448;7.028;2022-08-07T08:05:39;20.70;82.80
913;DHT22;443;51.448;7.028;2022-08-07T08:08:07;20.80;83.50
913;DHT22;443;51.448;7.028;2022-08-07T08:10:36;20.80;82.70
913;DHT22;443;51.448;7.028;2022-08-07T08:13:04;20.90;82.60
913;DHT22;443;51.448;7.028;2022-08-07T08:15:34;20.90;82.60
913;DHT22;443;51.448;7.028;2022-08-07T08:18:02;20.90;82.40
913;DHT22;443;51.448;7.028;2022-08-07T08:20:33;20.90;82.60
913;DHT22;443;51.448;7.028;2022-08-07T08:23:01;20.90;82.50
913;DHT22;443;51.448;7.028;2022-08-07T08:25:48;20.90;82.50
913;DHT22;443;51.448;7.028;2022-08-07T08:28:36;20.90;82.40
913;DHT22;443;51.448;7.028;2022-08-07T08:31:07;20.90;82.40
913;DHT22;443;51.448;7.028;2022-08-07T08:33:36;20.90;81.50
913;DHT22;443;51.448;7.028;2022-08-07T08:36:07;20.90;82.00
913;DHT22;443;51.448;7.028;2022-08-07T08:38:38;20.90;80.90
913;DHT22;443;51.448;7.028;2022-08-07T08:41:12;20.90;81.40
913;DHT22;443;51.448;7.028;2022-08-07T08:43:50;20.90;82.30
913;DHT22;443;51.448;7.028;2022-08-07T08:46:25;20.90;82.20
913;DHT22;443;51.448;7.028;2022-08-07T08:48:58;20.90;82.10
913;DHT22;443;51.448;7.028;2022-08-07T08:51:31;20.90;82.10
913;DHT22;443;51.448;7.028;2022-08-07T08:54:05;21.00;82.20
913;DHT22;443;51.448;7.028;2022-08-07T08:56:36;20.90;80.70
913;DHT22;443;51.448;7.028;2022-08-07T08:59:06;21.00;82.20
913;DHT22;443;51.448;7.028;2022-08-07T09:01:36;21.00;82.20
913;DHT22;443;51.448;7.028;2022-08-07T09:04:12;21.00;82.10
913;DHT22;443;51.448;7.028;2022-08-07T09:06:56;21.00;82.10
913;DHT22;443;51.448;7.028;2022-08-07T09:09:42;21.00;82.00
913;DHT22;443;51.448;7.028;2022-08-07T09:12:22;21.00;81.60
913;DHT22;443;51.448;7.028;2022-08-07T09:15:03;21.00;80.70
913;DHT22;443;51.448;7.028;2022-08-07T09:17:36;21.00;81.00
913;DHT22;443;51.448;7.028;2022-08-07T09:20:17;21.00;78.40
913;DHT22;443;51.448;7.028;2022-08-07T09:22:59;21.00;78.50
913;DHT22;443;51.448;7.028;2022-08-07T09:25:34;21.00;79.20
913;DHT22;443;51.448;7.028;2022-08-07T09:28:06;21.00;80.10
913;DHT22;443;51.448;7.028;2022-08-07T09:30:45;21.10;81.50
913;DHT22;443;51.448;7.028;2022-08-07T09:33:31;21.10;81.80
913;DHT22;443;51.448;7.028;2022-08-07T09:36:06;21.10;81.00
913;DHT22;443;51.448;7.028;2022-08-07T09:38:44;21.10;81.70
913;DHT22;443;51.448;7.028;2022-08-07T09:41:19;21.10;81.90
913;DHT22;443;51.448;7.028;2022-08-07T09:43:57;21.10;81.80
913;DHT22;443;51.448;7.028;2022-08-07T09:46:37;21.10;81.80
913;DHT22;443;51.448;7.028;2022-08-07T09:49:17;21.10;81.90
913;DHT22;443;51.448;7.028;2022-08-07T09:51:58;21.10;81.80
913;DHT22;443;51.448;7.028;2022-08-07T09:54:37;21.10;81.80
913;DHT22;443;51.448;7.028;2022-08-07T09:57:51;21.10;82.10
913;DHT22;443;51.448;7.028;2022-08-07T10:00:25;21.10;81.80
913;DHT22;443;51.448;7.028;2022-08-07T10:03:19;21.10;81.40
913;DHT22;443;51.448;7.028;2022-08-07T10:06:08;21.10;73.00
913;DHT22;443;51.448;7.028;2022-08-07T10:08:53;21.20;81.60
913;DHT22;443;51.448;7.028;2022-08-07T10:11:36;21.20;81.60
913;DHT22;443;51.448;7.028;2022-08-07T10:14:22;21.20;81.60
913;DHT22;443;51.448;7.028;2022-08-07T10:17:11;21.20;81.60
913;DHT22;443;51.448;7.028;2022-08-07T10:20:06;21.20;81.70
913;DHT22;443;51.448;7.028;2022-08-07T10:22:54;21.20;81.70
913;DHT22;443;51.448;7.028;2022-08-07T10:25:29;21.20;81.70
913;DHT22;443;51.448;7.028;2022-08-07T10:28:15;21.20;80.20
913;DHT22;443;51.448;7.028;2022-08-07T10:31:02;21.20;81.40
913;DHT22;443;51.448;7.028;2022-08-07T10:33:52;21.20;81.60
913;DHT22;443;51.448;7.028;2022-08-07T10:36:33;21.20;81.40
913;DHT22;443;51.448;7.028;2022-08-07T10:39:10;21.20;81.70
913;DHT22;443;51.448;7.028;2022-08-07T10:41:43;21.20;81.70
913;DHT22;443;51.448;7.028;2022-08-07T10:44:16;21.20;81.70
913;DHT22;443;51.448;7.028;2022-08-07T10:46:50;21.20;81.30
913;DHT22;443;51.448;7.028;2022-08-07T10:49:22;21.20;81.70
913;DHT22;443;51.448;7.028;2022-08-07T10:51:56;21.20;81.70
913;DHT22;443;51.448;7.028;2022-08-07T10:54:30;21.20;81.50
913;DHT22;443;51.448;7.028;2022-08-07T10:57:07;21.20;81.50
913;DHT22;443;51.448;7.028;2022-08-07T10:59:51;21.20;81.50
913;DHT22;443;51.448;7.028;2022-08-07T11:02:28;21.20;81.60
913;DHT22;443;51.448;7.028;2022-08-07T11:05:10;21.20;82.30
913;DHT22;443;51.448;7.028;2022-08-07T11:07:43;21.20;81.60
913;DHT22;443;51.448;7.028;2022-08-07T11:10:17;21.20;81.60
913;DHT22;443;51.448;7.028;2022-08-07T11:12:51;21.20;81.40
913;DHT22;443;51.448;7.028;2022-08-07T11:15:24;21.20;81.40
913;DHT22;443;51.448;7.028;2022-08-07T11:17:59;21.30;81.70
913;DHT22;443;51.448;7.028;2022-08-07T11:20:36;21.20;81.60
913;DHT22;443;51.448;7.028;2022-08-07T11:23:10;21.20;81.70
913;DHT22;443;51.448;7.028;2022-08-07T11:25:43;21.30;81.80
913;DHT22;443;51.448;7.028;2022-08-07T11:28:15;21.20;81.70
913;DHT22;443;51.448;7.028;2022-08-07T11:30:51;21.20;81.70
913;DHT22;443;51.448;7.028;2022-08-07T11:33:25;21.30;81.60
913;DHT22;443;51.448;7.028;2022-08-07T11:36:08;21.20;81.50
913;DHT22;443;51.448;7.028;2022-08-07T11:38:45;21.30;81.70
913;DHT22;443;51.448;7.028;2022-08-07T11:41:13;21.20;81.60
913;DHT22;443;51.448;7.028;2022-08-07T11:43:49;21.20;81.60
913;DHT22;443;51.448;7.028;2022-08-07T11:46:33;21.20;81.60
913;DHT22;443;51.448;7.028;2022-08-07T11:49:22;21.20;81.60
913;DHT22;443;51.448;7.028;2022-08-07T11:52:03;21.30;81.80
913;DHT22;443;51.448;7.028;2022-08-07T11:54:50;21.30;81.70
913;DHT22;443;51.448;7.028;2022-08-07T11:57:25;21.30;81.70
913;DHT22;443;51.448;7.028;2022-08-07T12:00:05;21.30;81.80
913;DHT22;443;51.448;7.028;2022-08-07T12:02:59;21.30;81.70
913;DHT22;443;51.448;7.028;2022-08-07T12:05:30;21.30;81.50
913;DHT22;443;51.448;7.028;2022-08-07T12:08:04;21.30;81.40
913;DHT22;443;51.448;7.028;2022-08-07T12:10:36;21.30;81.50
913;DHT22;443;51.448;7.028;2022-08-07T12:13:10;21.30;81.60
913;DHT22;443;51.448;7.028;2022-08-07T12:15:42;21.30;81.50
913;DHT22;443;51.448;7.028;2022-08-07T12:18:18;21.30;81.60
913;DHT22;443;51.448;7.028;2022-08-07T12:20:54;21.30;81.60
913;DHT22;443;51.448;7.028;2022-08-07T12:23:34;21.30;81.60
913;DHT22;443;51.448;7.028;2022-08-07T12:26:08;21.30;81.60
913;DHT22;443;51.448;7.028;2022-08-07T12:28:41;21.30;81.50
913;DHT22;443;51.448;7.028;2022-08-07T12:31:17;21.30;81.60
913;DHT22;443;51.448;7.028;2022-08-07T12:33:47;21.30;81.70
913;DHT22;443;51.448;7.028;2022-08-07T12:36:15;21.20;81.70
913;DHT22;443;51.448;7.028;2022-08-07T12:38:44;21.20;81.60
913;DHT22;443;51.448;7.028;2022-08-07T12:41:13;21.20;81.60
913;DHT22;443;51.448;7.028;2022-08-07T12:43:42;21.30;81.50
913;DHT22;443;51.448;7.028;2022-08-07T12:46:23;21.30;81.40
913;DHT22;443;51.448;7.028;2022-08-07T12:48:57;21.30;81.30
913;DHT22;443;51.448;7.028;2022-08-07T12:51:34;21.30;81.40
913;DHT22;443;51.448;7.028;2022-08-07T12:54:08;21.30;81.40
913;DHT22;443;51.448;7.028;2022-08-07T12:56:41;21.30;81.40
913;DHT22;443;51.448;7.028;2022-08-07T12:59:17;21.30;81.40
913;DHT22;443;51.448;7.028;2022-08-07T13:01:57;21.30;81.50
913;DHT22;443;51.448;7.028;2022-08-07T13:04:40;21.30;81.40
913;DHT22;443;51.448;7.028;2022-08-07T13:07:21;21.30;81.30
913;DHT22;443;51.448;7.028;2022-08-07T13:10:10;21.30;81.30
913;DHT22;443;51.448;7.028;2022-08-07T13:12:50;21.40;81.40
913;DHT22;443;51.448;7.028;2022-08-07T13:15:27;21.40;81.30
913;DHT22;443;51.448;7.028;2022-08-07T13:18:08;21.40;81.30
913;DHT22;443;51.448;7.028;2022-08-07T13:20:43;21.40;81.20
913;DHT22;443;51.448;7.028;2022-08-07T13:23:18;21.40;81.20
913;DHT22;443;51.448;7.028;2022-08-07T13:25:52;21.40;81.10
913;DHT22;443;51.448;7.028;2022-08-07T13:28:25;21.40;81.10
913;DHT22;443;51.448;7.028;2022-08-07T13:30:57;21.40;81.00
913;DHT22;443;51.448;7.028;2022-08-07T13:33:31;21.50;81.10
913;DHT22;443;51.448;7.028;2022-08-07T13:36:04;21.50;80.90
913;DHT22;443;51.448;7.028;2022-08-07T13:38:38;21.50;80.90
913;DHT22;443;51.448;7.028;2022-08-07T13:41:11;21.50;80.80
913;DHT22;443;51.448;7.028;2022-08-07T13:43:43;21.60;80.40
913;DHT22;443;51.448;7.028;2022-08-07T13:46:12;21.60;80.10
913;DHT22;443;51.448;7.028;2022-08-07T13:48:43;21.70;79.90
913;DHT22;443;51.448;7.028;2022-08-07T13:51:14;21.80;79.70
913;DHT22;443;51.448;7.028;2022-08-07T13:53:42;21.80;79.40
913;DHT22;443;51.448;7.028;2022-08-07T13:56:16;21.90;79.40
913;DHT22;443;51.448;7.028;2022-08-07T13:58:45;22.00;79.10
913;DHT22;443;51.448;7.028;2022-08-07T14:01:31;22.10;79.10
913;DHT22;443;51.448;7.028;2022-08-07T14:04:01;22.10;78.80
913;DHT22;443;51.448;7.028;2022-08-07T14:06:34;22.20;78.40
913;DHT22;443;51.448;7.028;2022-08-07T14:09:03;22.20;78.30
913;DHT22;443;51.448;7.028;2022-08-07T14:11:33;22.30;77.80
913;DHT22;443;51.448;7.028;2022-08-07T14:14:04;22.40;77.40
913;DHT22;443;51.448;7.028;2022-08-07T14:16:37;22.50;77.60
913;DHT22;443;51.448;7.028;2022-08-07T14:19:14;22.50;77.30
913;DHT22;443;51.448;7.028;2022-08-07T14:21:47;22.50;77.10
913;DHT22;443;51.448;7.028;2022-08-07T14:24:21;22.60;77.30
913;DHT22;443;51.448;7.028;2022-08-07T14:26:53;22.60;77.00
913;DHT22;443;51.448;7.028;2022-08-07T14:29:26;22.70;77.00
913;DHT22;443;51.448;7.028;2022-08-07T14:31:57;22.70;76.60
913;DHT22;443;51.448;7.028;2022-08-07T14:34:26;22.80;76.40
913;DHT22;443;51.448;7.028;2022-08-07T14:36:56;22.90;76.20
913;DHT22;443;51.448;7.028;2022-08-07T14:39:25;23.00;76.00
913;DHT22;443;51.448;7.028;2022-08-07T14:41:53;23.00;75.70
913;DHT22;443;51.448;7.028;2022-08-07T14:44:21;23.10;75.40
913;DHT22;443;51.448;7.028;2022-08-07T14:46:49;23.20;75.10
913;DHT22;443;51.448;7.028;2022-08-07T14:49:26;23.20;75.10
913;DHT22;443;51.448;7.028;2022-08-07T14:51:55;23.20;74.80
913;DHT22;443;51.448;7.028;2022-08-07T14:54:23;23.30;74.50
913;DHT22;443;51.448;7.028;2022-08-07T14:56:55;23.30;74.60
913;DHT22;443;51.448;7.028;2022-08-07T14:59:23;23.30;74.60
913;DHT22;443;51.448;7.028;2022-08-07T15:01:53;23.20;75.00
913;DHT22;443;51.448;7.028;2022-08-07T15:04:21;23.10;75.30
913;DHT22;443;51.448;7.028;2022-08-07T15:06:50;23.10;75.30
913;DHT22;443;51.448;7.028;2022-08-07T15:09:19;23.00;75.50
913;DHT22;443;51.448;7.028;2022-08-07T15:11:52;23.00;75.70
913;DHT22;443;51.448;7.028;2022-08-07T15:14:23;22.90;75.80
913;DHT22;443;51.448;7.028;2022-08-07T15:16:53;22.80;76.20
913;DHT22;443;51.448;7.028;2022-08-07T15:19:23;22.70;76.50
913;DHT22;443;51.448;7.028;2022-08-07T15:21:56;22.70;76.80
913;DHT22;443;51.448;7.028;2022-08-07T15:24:29;22.60;76.90
913;DHT22;443;51.448;7.028;2022-08-07T15:27:05;22.60;76.90
913;DHT22;443;51.448;7.028;2022-08-07T15:29:37;22.50;77.10
913;DHT22;443;51.448;7.028;2022-08-07T15:32:05;22.50;77.20
913;DHT22;443;51.448;7.028;2022-08-07T15:34:34;22.50;77.30
913;DHT22;443;51.448;7.028;2022-08-07T15:37:04;22.50;77.40
913;DHT22;443;51.448;7.028;2022-08-07T15:39:36;22.40;77.30
913;DHT22;443;51.448;7.028;2022-08-07T15:42:06;22.40;77.60
913;DHT22;443;51.448;7.028;2022-08-07T15:44:44;22.40;77.60
913;DHT22;443;51.448;7.028;2022-08-07T15:47:13;22.40;77.90
913;DHT22;443;51.448;7.028;2022-08-07T15:49:42;22.30;77.70
913;DHT22;443;51.448;7.028;2022-08-07T15:52:10;22.40;78.20
913;DHT22;443;51.448;7.028;2022-08-07T15:54:41;22.30;77.90
913;DHT22;443;51.448;7.028;2022-08-07T15:57:11;22.30;78.70
913;DHT22;443;51.448;7.028;2022-08-07T15:59:41;22.30;77.90
913;DHT22;443;51.448;7.028;2022-08-07T16:02:13;22.30;78.10
913;DHT22;443;51.448;7.028;2022-08-07T16:04:48;22.30;78.00
913;DHT22;443;51.448;7.028;2022-08-07T16:07:25;22.30;78.10
913;DHT22;443;51.448;7.028;2022-08-07T16:10:01;22.30;78.00
913;DHT22;443;51.448;7.028;2022-08-07T16:12:37;22.40;78.00
913;DHT22;443;51.448;7.028;2022-08-07T16:15:23;22.40;78.00
913;DHT22;443;51.448;7.028;2022-08-07T16:17:56;22.40;77.80
913;DHT22;443;51.448;7.028;2022-08-07T16:20:49;22.40;77.60
913;DHT22;443;51.448;7.028;2022-08-07T16:23:42;22.40;77.80
913;DHT22;443;51.448;7.028;2022-08-07T16:26:19;22.40;77.90
913;DHT22;443;51.448;7.028;2022-08-07T16:28:58;22.30;78.00
913;DHT22;443;51.448;7.028;2022-08-07T16:31:40;22.30;78.10
913;DHT22;443;51.448;7.028;2022-08-07T16:34:20;22.30;78.00
913;DHT22;443;51.448;7.028;2022-08-07T16:40:02;22.20;78.10
913;DHT22;443;51.448;7.028;2022-08-07T16:42:51;22.20;78.40
913;DHT22;443;51.448;7.028;2022-08-07T16:45:33;22.20;78.50
913;DHT22;443;51.448;7.028;2022-08-07T16:48:49;22.20;78.60
913;DHT22;443;51.448;7.028;2022-08-07T16:51:32;22.20;78.70
913;DHT22;443;51.448;7.028;2022-08-07T16:57:12;22.10;78.70
913;DHT22;443;51.448;7.028;2022-08-07T16:59:50;22.10;78.80
913;DHT22;443;51.448;7.028;2022-08-07T17:02:39;22.10;78.90
913;DHT22;443;51.448;7.028;2022-08-07T17:05:11;22.10;78.90
913;DHT22;443;51.448;7.028;2022-08-07T17:07:52;22.10;79.10
913;DHT22;443;51.448;7.028;2022-08-07T17:10:32;22.10;79.20
913;DHT22;443;51.448;7.028;2022-08-07T17:13:31;22.10;79.20
913;DHT22;443;51.448;7.028;2022-08-07T17:16:05;22.10;79.20